עמוד ראשי
METAR-TAF:

METAR-TAF

שדות תעופה :

Chiclayo, פרו

קו רוחב: 06-47S, קו אורך: 079-50W, גובה: 29מטר

תצפית מזג אוויר נוכחית

הדו"ח נערך לפני 55דקות, בשעה 10:00 UTC
רוח 8קשר מכיוון דרום/דרום-מערב
טמפרטורת 22 צלסיוס
לחות 73%
לחץ 1009 hPa
ראות 10 קילומטר או יותר
ללא עננים שבסיסם נמוך מ 5000 רגל או קומולונימבוס

METAR: SPHI 121000Z 20008KT CAVOK 22/17 Q1009 RMK BIRD HAZARD RWY 19/01 PP000

זמן: 05:55 (10:55 UTC)

תחזית

הדו"ח נערך לפני 5 שעות ו 50דקות, בשעה 05:05 UTC
תחזית בתוקף מ 12 ב 06 UTC עד 13 ב 06 UTC
רוח 10קשר מכיוון דרום
ראות 10 קילומטר או יותר
ללא עננים שבסיסם נמוך מ 5000 רגל או קומולונימבוס
יעשה מ
12 ב 16 UTC עד 12 ב 18 UTC
רוח 20קשר מכיוון דרום/דרום-מערב
יעשה מ
13 ב 03 UTC עד 13 ב 05 UTC
רוח 6קשר מכיוון דרום

TAF: SPHI 120505Z 1206/1306 18010KT CAVOK TX29/1219Z TN21/1211Z BECMG 1216/1218 20020KT BECMG 1303/1305 18006KT

תצפיות ותחזיות מזג אוויר לגבי יותר מ- 4,000 שדות תעופה ברחבי העולם. דוחות METAR ו- TAF.

התחנות הזמינות מסומנות בנקודות צהובות ואדומות על גבי המפה.

העבר את העכבר לנקודה הצבעונית על מנת לראות את שם התחנה.

לאחר מכן, לחץ כדי לראות את תוכן ואת תחזיות מזג האוויר.

כדי לשנות את המפה: לחץ על הכפתורים הירוקים עם הפלוס השחור כדי להתקרב; על הכפתור הירוק עם המקף כדי להתרחק; או בחיצים הירוקים למפות סמוכות.


METAR-TAF: